Time;durP1;ratioP1;P1;durP2;ratioP2;P2;SDS_P1;SDS_P2;PMS_P1;PMS_P2;Temp;Humidity;BMP_temperature;BMP_pressure;BME280_temperature;BME280_humidity;BME280_pressure;Samples;Min_cycle;Max_cycle;Signal;HPM_P1;HPM_P2
2021/10/14 00:01:34;;;;;;;0.40;0.30;;;;;;;9.83;100.00;101677.03;5055233;28;20439;-71
2021/10/14 00:04:01;;;;;;;0.40;0.30;;;;;;;9.88;100.00;101678.09;5055141;28;20442;-71
2021/10/14 00:06:27;;;;;;;0.40;0.30;;;;;;;9.89;100.00;101680.53;5055125;28;20508;-68
2021/10/14 00:08:54;;;;;;;0.40;0.30;;;;;;;9.92;100.00;101681.91;5055023;28;20438;-69
2021/10/14 00:11:20;;;;;;;0.40;0.30;;;;;;;9.94;100.00;101682.44;5054521;28;20486;-69
2021/10/14 00:13:47;;;;;;;0.40;0.30;;;;;;;9.97;100.00;101679.19;5054700;28;20993;-68
2021/10/14 00:16:14;;;;;;;0.40;0.30;;;;;;;9.94;100.00;101677.03;5054824;28;20473;-69
2021/10/14 00:18:42;;;;;;;0.40;0.30;;;;;;;9.94;100.00;101674.31;5054882;28;20437;-69
2021/10/14 00:21:08;;;;;;;0.40;0.30;;;;;;;9.96;100.00;101675.69;5054811;28;20442;-69
2021/10/14 00:23:35;;;;;;;0.40;0.30;;;;;;;9.99;100.00;101674.31;5054789;28;20438;-68
2021/10/14 00:26:01;;;;;;;0.50;0.30;;;;;;;9.94;100.00;101677.03;5054691;28;20465;-69
2021/10/14 00:28:28;;;;;;;0.40;0.30;;;;;;;9.86;100.00;101672.94;5054715;28;20507;-69
2021/10/14 00:30:54;;;;;;;0.40;0.30;;;;;;;9.89;100.00;101669.72;5054547;28;20517;-69
2021/10/14 00:33:20;;;;;;;0.40;0.30;;;;;;;9.91;100.00;101666.72;5054351;28;20823;-68
2021/10/14 00:35:48;;;;;;;0.40;0.30;;;;;;;9.94;100.00;101671.59;5054505;28;21765;-68
2021/10/14 00:38:15;;;;;;;0.40;0.30;;;;;;;9.94;100.00;101666.19;5054182;28;20943;-69
2021/10/14 00:40:43;;;;;;;0.40;0.30;;;;;;;9.94;100.00;101666.19;5054424;28;20438;-69
2021/10/14 00:43:10;;;;;;;0.40;0.30;;;;;;;9.98;100.00;101675.41;5053946;28;20462;-69
2021/10/14 00:45:36;;;;;;;0.40;0.30;;;;;;;9.99;100.00;101668.91;5054231;28;20450;-69
2021/10/14 00:48:03;;;;;;;0.40;0.30;;;;;;;9.97;100.00;101666.47;5054242;28;20795;-69
2021/10/14 00:50:29;;;;;;;0.40;0.30;;;;;;;10.00;100.00;101665.09;5054153;28;20489;-68
2021/10/14 00:52:57;;;;;;;0.40;0.30;;;;;;;9.98;100.00;101662.66;5054147;28;20445;-69
2021/10/14 00:55:24;;;;;;;0.40;0.30;;;;;;;9.98;100.00;101667.28;5054137;28;20492;-69
2021/10/14 00:57:51;;;;;;;0.40;0.30;;;;;;;9.99;100.00;101660.78;5053959;28;20462;-69
2021/10/14 01:00:18;;;;;;;0.40;0.30;;;;;;;9.98;100.00;101656.44;5054058;28;20446;-68
2021/10/14 01:02:45;;;;;;;0.40;0.30;;;;;;;9.94;100.00;101655.38;5054023;28;20450;-68
2021/10/14 01:05:11;;;;;;;0.40;0.20;;;;;;;9.94;100.00;101658.06;5053972;28;20447;-68
2021/10/14 01:07:38;;;;;;;0.40;0.30;;;;;;;9.95;100.00;101654.28;5053874;28;20470;-68
2021/10/14 01:10:07;;;;;;;0.40;0.30;;;;;;;9.98;100.00;101659.97;5053816;28;20481;-68
2021/10/14 01:12:35;;;;;;;0.40;0.30;;;;;;;10.01;100.00;101656.72;5053894;28;20442;-68
2021/10/14 01:15:15;;;;;;;0.40;0.30;;;;;;;10.01;100.00;101655.91;5053803;28;20536;-68
2021/10/14 01:17:41;;;;;;;0.40;0.30;;;;;;;10.02;100.00;101657.53;5053764;28;20492;-68
2021/10/14 01:20:11;;;;;;;0.40;0.30;;;;;;;9.99;100.00;101652.66;5053703;28;20449;-68
2021/10/14 01:22:37;;;;;;;0.40;0.30;;;;;;;9.97;100.00;101644.81;5052789;28;20446;-69
2021/10/14 01:25:04;;;;;;;0.40;0.30;;;;;;;9.97;100.00;101649.41;5053637;28;20442;-68
2021/10/14 01:27:31;;;;;;;0.40;0.30;;;;;;;9.99;100.00;101647.25;5053580;28;20462;-68
2021/10/14 01:29:57;;;;;;;0.40;0.30;;;;;;;9.94;100.00;101639.13;5053468;28;20496;-68
2021/10/14 01:32:24;;;;;;;0.40;0.30;;;;;;;10.00;100.00;101638.03;5053238;28;20454;-68
2021/10/14 01:34:50;;;;;;;0.40;0.30;;;;;;;10.03;100.00;101630.19;5053465;28;20449;-68
2021/10/14 01:37:18;;;;;;;0.40;0.30;;;;;;;10.01;100.00;101635.06;5053397;28;20520;-68
2021/10/14 01:39:44;;;;;;;0.40;0.30;;;;;;;10.04;100.00;101634.50;5053409;28;20442;-68
2021/10/14 01:42:11;;;;;;;0.40;0.30;;;;;;;10.08;100.00;101624.78;5052890;28;20960;-68
2021/10/14 01:44:37;;;;;;;0.40;0.20;;;;;;;10.05;100.00;101621.81;5053305;28;20449;-68
2021/10/14 01:47:04;;;;;;;0.40;0.27;;;;;;;10.11;100.00;101623.44;5053175;28;20461;-68
2021/10/14 01:49:30;;;;;;;0.40;0.27;;;;;;;10.12;100.00;101619.63;5053187;28;20476;-69
2021/10/14 01:51:57;;;;;;;0.40;0.30;;;;;;;10.13;100.00;101613.13;5053047;28;20486;-69
2021/10/14 01:54:24;;;;;;;0.40;0.30;;;;;;;10.14;100.00;101612.06;5052831;28;20446;-69
2021/10/14 01:56:51;;;;;;;0.40;0.30;;;;;;;10.15;100.00;101612.88;5053023;28;20462;-70
2021/10/14 01:59:17;;;;;;;0.40;0.30;;;;;;;10.13;100.00;101605.00;5053117;28;20446;-70
2021/10/14 02:01:44;;;;;;;0.40;0.30;;;;;;;10.12;100.00;101603.38;5053128;28;20793;-71
2021/10/14 02:04:10;;;;;;;0.40;0.30;;;;;;;10.10;100.00;101603.66;5052765;28;20441;-71
2021/10/14 02:06:37;;;;;;;0.40;0.30;;;;;;;10.11;100.00;101601.78;5053022;28;20458;-73
2021/10/14 02:09:03;;;;;;;0.40;0.30;;;;;;;10.13;100.00;101602.28;5053057;28;20446;-73
2021/10/14 02:11:31;;;;;;;0.40;0.30;;;;;;;10.12;100.00;101592.56;5053004;28;20489;-74
2021/10/14 02:13:58;;;;;;;0.40;0.30;;;;;;;10.08;100.00;101592.28;5052667;28;20853;-74
2021/10/14 02:16:24;;;;;;;0.40;0.30;;;;;;;10.09;100.00;101596.63;5053188;28;20455;-74
2021/10/14 02:18:51;;;;;;;0.40;0.30;;;;;;;10.09;100.00;101591.22;5052951;28;20442;-74
2021/10/14 02:21:18;;;;;;;0.40;0.30;;;;;;;10.10;100.00;101586.63;5052995;28;20438;-74
2021/10/14 02:23:45;;;;;;;0.40;0.30;;;;;;;10.11;100.00;101588.22;5052921;28;20447;-74
2021/10/14 02:26:11;;;;;;;0.40;0.30;;;;;;;10.12;100.00;101587.16;5052577;28;20466;-74
2021/10/14 02:28:39;;;;;;;0.40;0.30;;;;;;;10.11;100.00;101590.94;5052566;28;20952;-74
2021/10/14 02:31:06;;;;;;;0.40;0.30;;;;;;;10.12;100.00;101587.16;5052769;28;20528;-74
2021/10/14 02:33:32;;;;;;;0.40;0.30;;;;;;;10.10;100.00;101592.03;5054588;28;20496;-74
2021/10/14 02:35:59;;;;;;;0.50;0.40;;;;;;;10.06;100.00;101586.34;5056419;28;20883;-74
2021/10/14 02:38:25;;;;;;;0.40;0.30;;;;;;;10.01;100.00;101585.53;5056814;28;20453;-74
2021/10/14 02:40:51;;;;;;;0.40;0.30;;;;;;;10.02;100.00;101581.75;5056735;28;20447;-74
2021/10/14 02:43:18;;;;;;;0.60;0.53;;;;;;;9.99;100.00;101576.88;5056376;28;20453;-74
2021/10/14 02:45:46;;;;;;;0.40;0.30;;;;;;;9.99;100.00;101576.88;5056597;28;20438;-74
2021/10/14 02:48:12;;;;;;;0.40;0.30;;;;;;;9.96;100.00;101563.88;5056577;28;20454;-74
2021/10/14 02:50:38;;;;;;;0.40;0.30;;;;;;;9.93;100.00;101569.84;5056461;28;20478;-74
2021/10/14 02:53:05;;;;;;;0.40;0.30;;;;;;;9.91;100.00;101569.28;5056515;28;20464;-74
2021/10/14 02:55:31;;;;;;;0.40;0.30;;;;;;;9.90;100.00;101567.69;5056113;28;20972;-74
2021/10/14 02:57:58;;;;;;;0.40;0.30;;;;;;;9.93;100.00;101565.25;5056098;28;20449;-75
2021/10/14 03:00:24;;;;;;;0.40;0.30;;;;;;;9.93;100.00;101562.53;5056450;28;20442;-74
2021/10/14 03:02:52;;;;;;;0.40;0.30;;;;;;;9.92;100.00;101560.13;5056390;28;20449;-74
2021/10/14 03:05:18;;;;;;;0.40;0.30;;;;;;;9.89;100.00;101549.81;5056310;28;20442;-74
2021/10/14 03:07:45;;;;;;;0.57;0.53;;;;;;;9.85;100.00;101552.25;5056237;28;20461;-74
2021/10/14 03:10:11;;;;;;;0.40;0.30;;;;;;;9.82;100.00;101545.47;5055890;28;20450;-74
2021/10/14 03:12:38;;;;;;;1.20;1.17;;;;;;;9.83;100.00;101540.91;5055772;28;21021;-74
2021/10/14 03:15:06;;;;;;;0.40;0.30;;;;;;;9.81;100.00;101543.88;5056091;28;20442;-73
2021/10/14 03:17:32;;;;;;;0.40;0.30;;;;;;;9.82;100.00;101536.56;5056006;28;20462;-73
2021/10/14 03:20:00;;;;;;;0.40;0.30;;;;;;;9.79;100.00;101540.63;5055974;28;20442;-73
2021/10/14 03:22:26;;;;;;;0.40;0.23;;;;;;;9.75;100.00;101539.56;5055697;28;20442;-73
2021/10/14 03:24:53;;;;;;;0.40;0.30;;;;;;;9.80;100.00;101536.03;5055899;28;20434;-73
2021/10/14 03:27:19;;;;;;;0.40;0.30;;;;;;;9.80;100.00;101536.84;5055511;28;21008;-73
2021/10/14 03:29:46;;;;;;;0.40;0.30;;;;;;;9.83;100.00;101524.69;5055831;28;20446;-73
2021/10/14 03:32:12;;;;;;;0.40;0.30;;;;;;;9.83;100.00;101530.91;5055704;28;20488;-73
2021/10/14 03:34:38;;;;;;;0.40;0.30;;;;;;;9.86;100.00;101524.09;5055723;28;20446;-73
2021/10/14 03:37:06;;;;;;;0.40;0.30;;;;;;;9.84;100.00;101523.59;5055647;28;20462;-73
2021/10/14 03:39:33;;;;;;;0.40;0.30;;;;;;;9.83;100.00;101524.69;5055669;28;20449;-73
2021/10/14 03:41:59;;;;;;;0.40;0.30;;;;;;;9.80;100.00;101526.03;5055399;28;20458;-73
2021/10/14 03:44:25;;;;;;;0.40;0.30;;;;;;;9.81;100.00;101529.53;5054717;28;20442;-73
2021/10/14 03:46:52;;;;;;;0.40;0.30;;;;;;;9.81;100.00;101522.22;5055454;28;20508;-72
2021/10/14 03:49:18;;;;;;;0.40;0.27;;;;;;;9.81;100.00;101527.63;5055189;28;20951;-72
2021/10/14 03:51:45;;;;;;;0.40;0.30;;;;;;;9.81;100.00;101521.41;5055387;28;20548;-72
2021/10/14 03:54:12;;;;;;;0.40;0.30;;;;;;;9.82;100.00;101523.03;5055057;28;20449;-72
2021/10/14 03:56:39;;;;;;;0.40;0.30;;;;;;;9.83;100.00;101517.38;5055252;28;20469;-72
2021/10/14 03:59:05;;;;;;;0.40;0.30;;;;;;;9.83;100.00;101519.28;5055310;28;20442;-72
2021/10/14 04:01:32;;;;;;;0.40;0.30;;;;;;;9.79;100.00;101519.00;5055264;28;20464;-72
2021/10/14 04:03:58;;;;;;;0.40;0.30;;;;;;;9.84;100.00;101512.75;5055159;28;20446;-73
2021/10/14 04:06:25;;;;;;;0.40;0.30;;;;;;;9.82;100.00;101518.44;5055134;28;20466;-72
2021/10/14 04:08:51;;;;;;;0.40;0.30;;;;;;;9.82;100.00;101517.63;5055063;28;20450;-72
2021/10/14 04:11:19;;;;;;;0.40;0.30;;;;;;;9.88;100.00;101515.75;5054954;28;20478;-72
2021/10/14 04:13:45;;;;;;;0.40;0.30;;;;;;;9.89;100.00;101520.06;5054946;28;20851;-72
2021/10/14 04:16:12;;;;;;;0.40;0.30;;;;;;;9.93;100.00;101513.03;5054895;28;20469;-72
2021/10/14 04:18:38;;;;;;;0.40;0.30;;;;;;;9.92;100.00;101514.13;5054620;28;20943;-72
2021/10/14 04:21:05;;;;;;;0.40;0.30;;;;;;;9.93;100.00;101513.03;5054592;28;20434;-72
2021/10/14 04:23:32;;;;;;;0.40;0.30;;;;;;;9.94;100.00;101509.22;5057346;28;20997;-72
2021/10/14 04:25:58;;;;;;;0.40;0.30;;;;;;;9.96;100.00;101518.69;5074589;28;20472;-72
2021/10/14 04:28:26;;;;;;;0.40;0.30;;;;;;;9.96;100.00;101520.56;5074708;28;20453;-72
2021/10/14 04:30:53;;;;;;;0.40;0.27;;;;;;;9.96;100.00;101507.88;5074582;28;20441;-72
2021/10/14 04:33:19;;;;;;;0.40;0.30;;;;;;;9.97;100.00;101508.69;5074658;28;20444;-73
2021/10/14 04:35:45;;;;;;;0.50;0.50;;;;;;;9.98;100.00;101510.31;5074520;28;20452;-72
2021/10/14 04:38:12;;;;;;;0.40;0.30;;;;;;;9.97;100.00;101511.38;5074253;28;20480;-72
2021/10/14 04:40:38;;;;;;;0.40;0.30;;;;;;;9.99;100.00;101509.22;5074476;28;20434;-73
2021/10/14 04:43:05;;;;;;;0.40;0.30;;;;;;;10.01;100.00;101513.28;5073976;28;20453;-73
2021/10/14 04:45:33;;;;;;;0.40;0.30;;;;;;;10.00;100.00;101508.94;5074371;28;20798;-73
2021/10/14 04:47:59;;;;;;;0.40;0.30;;;;;;;10.02;100.00;101512.19;5074329;28;20437;-73
2021/10/14 04:50:25;;;;;;;0.40;0.30;;;;;;;10.01;100.00;101513.28;5074059;28;20935;-74
2021/10/14 04:52:52;;;;;;;0.40;0.30;;;;;;;10.02;100.00;101511.38;5073865;28;21001;-73
2021/10/14 04:55:18;;;;;;;0.40;0.30;;;;;;;10.02;100.00;101516.78;5074109;28;20452;-73
2021/10/14 04:57:45;;;;;;;0.40;0.30;;;;;;;9.98;100.00;101507.59;5074073;28;20468;-73
2021/10/14 05:00:12;;;;;;;0.40;0.30;;;;;;;9.97;100.00;101511.38;5074019;28;20445;-73
2021/10/14 05:02:40;;;;;;;0.40;0.30;;;;;;;9.97;100.00;101500.56;5073730;28;20949;-74
2021/10/14 05:05:07;;;;;;;0.40;0.30;;;;;;;9.96;100.00;101498.91;5074008;28;20437;-73
2021/10/14 05:07:33;;;;;;;0.40;0.20;;;;;;;9.97;100.00;101500.56;5073651;28;20982;-73
2021/10/14 05:10:00;;;;;;;0.40;0.30;;;;;;;9.94;100.00;101501.09;5073920;28;20452;-73
2021/10/14 05:12:26;;;;;;;0.40;0.20;;;;;;;9.95;100.00;101500.81;5073792;28;20485;-74
2021/10/14 05:14:53;;;;;;;0.40;0.30;;;;;;;9.97;100.00;101503.28;5073542;28;20941;-73
2021/10/14 05:17:19;;;;;;;0.40;0.30;;;;;;;9.99;100.00;101492.97;5073924;28;20470;-73
2021/10/14 05:19:47;;;;;;;0.40;0.30;;;;;;;10.03;100.00;101499.47;5073781;28;20445;-73
2021/10/14 05:22:13;;;;;;;0.40;0.30;;;;;;;10.05;100.00;101500.00;5073472;28;20922;-74
2021/10/14 05:24:40;;;;;;;0.40;0.30;;;;;;;10.06;100.00;101498.91;5073655;28;20445;-74
2021/10/14 05:27:06;;;;;;;0.40;0.30;;;;;;;10.09;100.00;101498.34;5073586;28;20468;-74
2021/10/14 05:29:32;;;;;;;0.40;0.30;;;;;;;10.07;100.00;101495.13;5073594;28;20441;-74
2021/10/14 05:31:59;;;;;;;0.40;0.30;;;;;;;10.05;100.00;101495.41;5073458;28;20485;-74
2021/10/14 05:34:25;;;;;;;0.40;0.30;;;;;;;10.00;100.00;101503.50;5073545;28;20445;-74
2021/10/14 05:36:53;;;;;;;0.40;0.30;;;;;;;9.99;100.00;101499.19;5073367;28;20468;-74
2021/10/14 05:39:19;;;;;;;0.40;0.30;;;;;;;10.00;100.00;101508.94;5073476;28;20441;-74
2021/10/14 05:41:46;;;;;;;0.40;0.30;;;;;;;10.05;100.00;101510.84;5073226;28;20450;-74
2021/10/14 05:44:12;;;;;;;0.40;0.30;;;;;;;10.08;100.00;101499.44;5073448;28;20426;-74
2021/10/14 05:46:42;;;;;;;0.40;0.30;;;;;;;10.09;100.00;101507.31;5074484;28;20473;-73
2021/10/14 05:49:08;;;;;;;0.40;0.30;;;;;;;10.06;100.00;101507.84;5073334;28;20849;-73
2021/10/14 05:51:35;;;;;;;0.40;0.30;;;;;;;10.00;100.00;101508.13;5073241;28;20496;-73
2021/10/14 05:54:03;;;;;;;0.40;0.30;;;;;;;10.03;100.00;101504.88;5073310;28;20449;-73
2021/10/14 05:56:30;;;;;;;0.40;0.30;;;;;;;10.07;100.00;101506.75;5073183;28;20476;-73
2021/10/14 05:58:57;;;;;;;0.40;0.30;;;;;;;10.10;100.00;101508.91;5073203;28;20437;-70
2021/10/14 06:01:23;;;;;;;0.40;0.30;;;;;;;10.13;100.00;101506.72;5073277;28;20492;-71
2021/10/14 06:03:50;;;;;;;0.40;0.30;;;;;;;10.14;100.00;101514.59;5073207;28;20444;-70
2021/10/14 06:06:17;;;;;;;0.40;0.30;;;;;;;10.17;100.00;101508.63;5073139;28;20464;-70
2021/10/14 06:08:43;;;;;;;0.40;0.30;;;;;;;10.14;100.00;101520.00;5072600;28;20442;-70
2021/10/14 06:11:11;;;;;;;0.40;0.30;;;;;;;10.19;100.00;101511.06;5073121;28;20858;-71
2021/10/14 06:13:37;;;;;;;0.40;0.30;;;;;;;10.28;100.00;101514.84;5072749;28;20481;-71
2021/10/14 06:16:05;;;;;;;0.40;0.30;;;;;;;10.33;100.00;101517.53;5072694;28;20473;-71
2021/10/14 06:18:32;;;;;;;0.40;0.30;;;;;;;10.34;100.00;101517.25;5073087;28;20445;-71
2021/10/14 06:20:58;;;;;;;0.40;0.30;;;;;;;10.32;100.00;101516.75;5072677;28;20951;-71
2021/10/14 06:23:24;;;;;;;0.40;0.30;;;;;;;10.34;100.00;101519.16;5072705;28;20448;-71
2021/10/14 06:25:51;;;;;;;0.40;0.30;;;;;;;10.35;100.00;101521.59;5072565;28;20468;-71
2021/10/14 06:28:19;;;;;;;0.40;0.30;;;;;;;10.35;100.00;101527.00;5073004;28;20441;-70
2021/10/14 06:30:45;;;;;;;0.40;0.30;;;;;;;10.40;100.00;101517.25;5072625;28;20783;-69
2021/10/14 06:33:11;;;;;;;0.40;0.30;;;;;;;10.40;100.00;101519.94;5072521;28;21067;-70
2021/10/14 06:35:38;;;;;;;0.40;0.30;;;;;;;10.39;100.00;101524.56;5072838;28;20445;-70
2021/10/14 06:38:06;;;;;;;0.40;0.30;;;;;;;10.44;100.00;101521.00;5072901;28;20444;-69
2021/10/14 06:40:32;;;;;;;0.40;0.30;;;;;;;10.49;100.00;101526.41;5072841;28;20456;-70
2021/10/14 06:42:59;;;;;;;0.40;0.30;;;;;;;10.51;100.00;101521.53;5072471;28;20453;-69
2021/10/14 06:45:27;;;;;;;0.40;0.30;;;;;;;10.44;100.00;101523.72;5072764;28;20441;-71
2021/10/14 06:47:53;;;;;;;0.40;0.30;;;;;;;10.45;100.00;101522.66;5072700;28;20465;-71
2021/10/14 06:50:20;;;;;;;0.40;0.30;;;;;;;10.48;100.00;101517.47;5072765;28;20441;-70
2021/10/14 06:52:46;;;;;;;0.40;0.30;;;;;;;10.52;100.00;101521.25;5072691;28;20481;-71
2021/10/14 06:55:13;;;;;;;0.40;0.30;;;;;;;10.56;100.00;101513.38;5072727;28;20464;-70
2021/10/14 06:57:39;;;;;;;0.40;0.30;;;;;;;10.59;100.00;101516.34;5072610;28;20548;-71
2021/10/14 07:00:08;;;;;;;0.40;0.30;;;;;;;10.59;100.00;101519.06;5072681;28;20468;-71
2021/10/14 07:02:35;;;;;;;0.40;0.30;;;;;;;10.62;100.00;101509.56;5072668;28;20440;-71
2021/10/14 07:05:02;;;;;;;0.40;0.30;;;;;;;10.68;100.00;101513.88;5072600;28;20441;-70
2021/10/14 07:07:29;;;;;;;0.40;0.20;;;;;;;10.73;100.00;101516.56;5072541;28;20493;-71
2021/10/14 07:09:55;;;;;;;0.40;0.30;;;;;;;10.74;100.00;101515.47;5072246;28;20840;-70
2021/10/14 07:12:27;;;;;;;0.40;0.30;;;;;;;10.79;100.00;101515.44;5072466;28;20481;-70
2021/10/14 07:14:54;;;;;;;0.40;0.30;;;;;;;10.77;100.00;101516.81;5072515;28;20422;-70
2021/10/14 07:17:20;;;;;;;0.40;0.30;;;;;;;10.80;100.00;101508.94;5072427;28;20452;-70
2021/10/14 07:19:48;;;;;;;0.40;0.30;;;;;;;10.83;100.00;101511.06;5072894;28;20445;-70
2021/10/14 07:22:15;;;;;;;0.40;0.20;;;;;;;10.86;100.00;101510.53;5073692;28;20499;-70
2021/10/14 07:24:41;;;;;;;0.40;0.30;;;;;;;10.92;100.00;101505.06;5075599;28;20856;-70
2021/10/14 07:27:08;;;;;;;0.40;0.30;;;;;;;10.97;100.00;101499.63;5075821;28;20473;-70
2021/10/14 07:29:35;;;;;;;0.40;0.30;;;;;;;10.96;100.00;101504.22;5075956;28;20472;-70
2021/10/14 07:32:01;;;;;;;0.40;0.30;;;;;;;11.01;100.00;101506.09;5075752;28;20445;-70
2021/10/14 07:34:28;;;;;;;0.40;0.30;;;;;;;11.03;100.00;101493.88;5075837;28;20437;-70
2021/10/14 07:36:55;;;;;;;0.40;0.30;;;;;;;11.05;100.00;101485.47;5075344;28;20464;-70
2021/10/14 07:39:22;;;;;;;0.40;0.30;;;;;;;11.05;100.00;101488.97;5075703;28;20438;-70
2021/10/14 07:41:48;;;;;;;0.40;0.30;;;;;;;11.09;100.00;101481.91;5075418;28;20890;-70
2021/10/14 07:44:17;;;;;;;0.40;0.30;;;;;;;11.15;100.00;101493.50;5075664;28;20851;-70
2021/10/14 07:46:44;;;;;;;0.40;0.30;;;;;;;11.22;100.00;101495.94;5075522;28;20839;-70
2021/10/14 07:49:11;;;;;;;0.40;0.30;;;;;;;11.22;100.00;101495.94;5075513;28;20445;-67
2021/10/14 07:51:37;;;;;;;0.40;0.30;;;;;;;11.25;100.00;101504.31;5075193;28;20433;-70
2021/10/14 07:54:06;;;;;;;0.40;0.30;;;;;;;11.31;100.00;101502.34;5075057;28;20827;-68
2021/10/14 07:56:33;;;;;;;2.40;1.80;;;;;;;11.34;100.00;101502.59;5074984;28;20464;-69
2021/10/14 07:58:59;;;;;;;0.40;0.30;;;;;;;11.42;100.00;101516.63;5075351;28;20437;-69
2021/10/14 08:01:26;;;;;;;0.40;0.23;;;;;;;11.45;100.00;101526.94;5075310;28;20437;-70
2021/10/14 08:03:53;;;;;;;0.40;0.20;;;;;;;11.46;100.00;101529.34;5075264;28;20441;-69
2021/10/14 08:06:19;;;;;;;0.50;0.47;;;;;;;11.54;100.00;101527.94;5075148;28;20461;-70
2021/10/14 08:08:49;;;;;;;0.40;0.30;;;;;;;11.57;100.00;101527.38;5075201;28;20449;-70
2021/10/14 08:11:17;;;;;;;0.40;0.30;;;;;;;11.57;100.00;101535.53;5075112;28;20472;-69
2021/10/14 08:13:43;;;;;;;0.40;0.30;;;;;;;11.57;100.00;101520.06;5074964;28;20477;-69
2021/10/14 08:16:10;;;;;;;0.40;0.30;;;;;;;11.55;100.00;101524.97;5074821;28;20487;-70
2021/10/14 08:18:36;;;;;;;0.40;0.30;;;;;;;11.60;100.00;101524.13;5069031;28;20465;-70
2021/10/14 08:21:03;;;;;;;0.40;0.30;;;;;;;11.61;100.00;101529.25;5054880;28;20453;-70
2021/10/14 08:23:30;;;;;;;0.40;0.30;;;;;;;11.67;100.00;101534.63;5054807;28;20453;-70
2021/10/14 08:25:57;;;;;;;0.40;0.30;;;;;;;11.66;100.00;101520.25;5054722;28;20461;-70
2021/10/14 08:28:26;;;;;;;0.40;0.30;;;;;;;11.75;100.00;101515.00;5054743;28;20449;-70
2021/10/14 08:30:53;;;;;;;0.40;0.30;;;;;;;11.81;100.00;101522.00;5054273;28;20482;-70
2021/10/14 08:33:20;;;;;;;0.40;0.30;;;;;;;11.97;100.00;101522.72;5054288;28;20477;-70
2021/10/14 08:35:46;;;;;;;0.40;0.20;;;;;;;11.99;100.00;101521.31;5054553;28;20442;-70
2021/10/14 08:38:14;;;;;;;0.40;0.30;;;;;;;12.03;100.00;101525.06;5054595;28;20442;-70
2021/10/14 08:40:41;;;;;;;0.40;0.30;;;;;;;11.99;100.00;101523.22;5054619;28;20865;-70
2021/10/14 08:43:10;;;;;;;0.40;0.30;;;;;;;12.08;100.00;101527.72;5054244;28;20454;-70
2021/10/14 08:45:39;;;;;;;0.40;0.30;;;;;;;12.15;100.00;101513.81;5054402;28;20500;-70
2021/10/14 08:48:06;;;;;;;0.40;0.30;;;;;;;12.25;100.00;101518.31;5054436;28;20442;-70
2021/10/14 08:50:34;;;;;;;0.40;0.30;;;;;;;12.23;100.00;101520.53;5054353;28;20442;-70
2021/10/14 08:53:01;;;;;;;0.40;0.30;;;;;;;12.22;100.00;101514.28;5054239;28;20482;-70
2021/10/14 08:55:30;;;;;;;0.53;0.53;;;;;;;12.22;100.00;101517.00;5053949;28;20965;-70
2021/10/14 08:57:57;;;;;;;0.40;0.40;;;;;;;12.21;100.00;101517.28;5054222;28;20435;-70
2021/10/14 09:00:24;;;;;;;0.40;0.30;;;;;;;12.22;100.00;101517.00;5053921;28;20442;-70
2021/10/14 09:02:52;;;;;;;0.40;0.20;;;;;;;12.22;100.00;101514.28;5054131;28;20442;-70
2021/10/14 09:05:18;;;;;;;0.40;0.30;;;;;;;12.18;100.00;101515.97;5054079;28;20451;-70
2021/10/14 09:07:49;;;;;;;0.40;0.30;;;;;;;12.19;100.00;101511.34;5053931;28;20462;-70
2021/10/14 09:10:16;;;;;;;0.40;0.30;;;;;;;12.18;100.00;101512.44;5054031;28;20437;-70
2021/10/14 09:12:45;;;;;;;0.40;0.30;;;;;;;12.16;100.00;101520.06;5053835;28;20482;-70
2021/10/14 09:15:13;;;;;;;0.40;0.30;;;;;;;12.18;100.00;101518.69;5053927;28;20450;-70
2021/10/14 09:17:48;;;;;;;0.40;0.30;;;;;;;12.21;100.00;101512.66;5053780;28;20464;-70
2021/10/14 09:20:40;;;;;;;0.40;0.40;;;;;;;12.25;100.00;101513.69;5053685;28;20433;-69
2021/10/14 09:23:12;;;;;;;0.40;0.30;;;;;;;12.24;100.00;101517.50;5039010;28;20485;-70
2021/10/14 09:25:41;;;;;;;0.40;0.30;;;;;;;12.11;100.00;101510.88;5053574;28;20492;-70
2021/10/14 09:28:11;;;;;;;0.40;0.30;;;;;;;12.11;100.00;101513.59;5053691;28;20449;-69
2021/10/14 09:30:58;;;;;;;0.40;0.30;;;;;;;12.22;100.00;101514.28;5053226;28;20924;-70
2021/10/14 09:33:30;;;;;;;0.40;0.30;;;;;;;12.31;100.00;101507.13;5048540;28;20490;-70
2021/10/14 09:36:09;;;;;;;0.40;0.27;;;;;;;12.28;100.00;101517.75;5053092;28;20972;-70
2021/10/14 09:38:36;;;;;;;0.40;0.30;;;;;;;12.30;100.00;101512.81;5053355;28;20433;-70
2021/10/14 09:41:04;;;;;;;0.40;0.30;;;;;;;12.24;100.00;101511.28;5053500;28;20447;-70
2021/10/14 09:43:31;;;;;;;0.40;0.30;;;;;;;12.29;100.00;101509.31;5054841;28;20477;-70
2021/10/14 09:45:57;;;;;;;0.40;0.30;;;;;;;12.34;100.00;101519.31;5073440;28;20902;-70
2021/10/14 09:48:24;;;;;;;0.40;0.30;;;;;;;12.32;100.00;101516.88;5073338;28;20441;-70
2021/10/14 09:50:53;;;;;;;0.40;0.20;;;;;;;12.27;100.00;101508.00;5073353;28;20448;-70
2021/10/14 09:53:22;;;;;;;0.40;0.30;;;;;;;12.29;100.00;101512.03;5072947;28;20580;-70
2021/10/14 09:55:50;;;;;;;0.40;0.30;;;;;;;12.33;100.00;101504.91;5072924;28;20824;-70
2021/10/14 09:58:17;;;;;;;0.40;0.30;;;;;;;12.41;100.00;101499.94;5073307;28;20444;-70
2021/10/14 10:00:45;;;;;;;0.40;0.30;;;;;;;12.49;100.00;101505.53;5072906;28;20923;-70
2021/10/14 10:03:15;;;;;;;0.40;0.30;;;;;;;12.55;100.00;101498.13;5073233;28;20437;-70
2021/10/14 10:05:47;;;;;;;0.40;0.30;;;;;;;12.56;100.00;101500.53;5072789;28;20438;-70
2021/10/14 10:08:20;;;;;;;0.40;0.30;;;;;;;12.63;100.00;101508.34;5073201;28;20461;-70
2021/10/14 10:10:49;;;;;;;0.40;0.30;;;;;;;12.69;100.00;101501.75;5073147;28;20425;-70
2021/10/14 10:13:17;;;;;;;0.40;0.30;;;;;;;12.65;100.00;101506.13;5073073;28;20484;-70
2021/10/14 10:15:45;;;;;;;0.40;0.30;;;;;;;12.71;100.00;101498.75;5072993;28;20827;-69
2021/10/14 10:18:38;;;;;;;0.40;0.30;;;;;;;12.72;100.00;101495.72;5073100;28;20449;-70
2021/10/14 10:21:06;;;;;;;0.40;0.30;;;;;;;12.69;100.00;101500.94;5073015;28;20434;-70
2021/10/14 10:23:46;;;;;;;0.40;0.30;;;;;;;12.65;100.00;101497.19;5072659;28;20944;-70
2021/10/14 10:26:51;;;;;;;0.40;0.30;;;;;;;12.62;100.00;101493.16;5072593;28;20468;-70
2021/10/14 10:29:41;;;;;;;0.40;0.30;;;;;;;12.56;100.00;101486.16;5052495;28;20460;-72
2021/10/14 10:32:16;;;;;;;0.40;0.30;;;;;;;12.58;100.00;101478.53;5073032;28;20801;-72
2021/10/14 10:34:50;;;;;;;0.40;0.30;;;;;;;12.62;100.00;101482.28;5072521;28;20469;-70
2021/10/14 10:37:20;;;;;;;0.40;0.20;;;;;;;12.66;100.00;101486.03;5072842;28;20465;-70
2021/10/14 10:39:49;;;;;;;0.40;0.30;;;;;;;12.70;100.00;101484.31;5072860;28;20536;-70
2021/10/14 10:42:18;;;;;;;0.40;0.30;;;;;;;12.68;100.00;101480.28;5072568;28;20506;-70
2021/10/14 10:44:47;;;;;;;0.40;0.30;;;;;;;12.64;100.00;101471.91;5072795;28;20441;-70
2021/10/14 10:47:54;;;;;;;0.40;0.30;;;;;;;12.63;100.00;101468.38;5072457;28;20469;-70
2021/10/14 10:50:22;;;;;;;0.40;0.30;;;;;;;12.59;100.00;101475.50;5072534;28;20428;-70
2021/10/14 10:53:01;;;;;;;0.40;0.23;;;;;;;12.60;100.00;101470.88;5072639;28;20465;-70
2021/10/14 10:55:39;;;;;;;0.40;0.30;;;;;;;12.59;100.00;101461.13;5076292;28;20444;-70
2021/10/14 10:58:09;;;;;;;0.40;0.30;;;;;;;12.66;100.00;101450.69;5076159;28;20811;-70
2021/10/14 11:00:39;;;;;;;0.40;0.30;;;;;;;12.68;100.00;101456.63;5076407;28;20449;-70
2021/10/14 11:03:17;;;;;;;0.40;0.30;;;;;;;12.67;100.00;101452.31;5076008;28;20953;-70
2021/10/14 11:05:54;;;;;;;0.40;0.30;;;;;;;12.67;100.00;101448.78;5056502;28;20458;-70
2021/10/14 11:08:23;;;;;;;0.40;0.30;;;;;;;12.71;100.00;101445.19;5056385;28;20465;-69
2021/10/14 11:10:53;;;;;;;0.40;0.30;;;;;;;12.76;100.00;101447.03;5055983;28;20481;-70
2021/10/14 11:13:20;;;;;;;0.40;0.30;;;;;;;12.76;100.00;101441.59;5056197;28;20489;-70
2021/10/14 11:15:50;;;;;;;0.40;0.30;;;;;;;12.75;100.00;101443.50;5055909;28;20533;-70
2021/10/14 11:18:17;;;;;;;0.40;0.30;;;;;;;12.74;100.00;101441.06;5055917;28;20936;-70
2021/10/14 11:20:53;;;;;;;0.40;0.20;;;;;;;12.78;100.00;101434.72;5056093;28;20464;-69
2021/10/14 11:23:21;;;;;;;0.40;0.30;;;;;;;12.81;100.00;101441.50;5056203;28;20511;-70